sensor_id;sensor_type;location;lat;lon;timestamp;pressure;altitude;pressure_sealevel;temperature;humidity
46944;BME280;32678;43.852;25.952;2023-08-21T00:01:52;101207.66;;;31.18;44.40
46944;BME280;32678;43.852;25.952;2023-08-21T00:06:48;101210.53;;;31.16;44.83
46944;BME280;32678;43.852;25.952;2023-08-21T00:11:45;101212.91;;;30.87;45.05
46944;BME280;32678;43.852;25.952;2023-08-21T00:16:41;101205.56;;;30.06;45.30
46944;BME280;32678;43.852;25.952;2023-08-21T00:21:39;101201.75;;;29.83;44.79
46944;BME280;32678;43.852;25.952;2023-08-21T00:26:35;101211.72;;;29.75;45.31
46944;BME280;32678;43.852;25.952;2023-08-21T00:31:32;101213.38;;;30.18;44.35
46944;BME280;32678;43.852;25.952;2023-08-21T00:36:28;101208.00;;;30.34;43.78
46944;BME280;32678;43.852;25.952;2023-08-21T00:41:25;101209.72;;;30.59;43.80
46944;BME280;32678;43.852;25.952;2023-08-21T00:46:23;101216.78;;;30.44;43.94
46944;BME280;32678;43.852;25.952;2023-08-21T00:51:20;101218.84;;;30.66;43.70
46944;BME280;32678;43.852;25.952;2023-08-21T00:56:16;101226.63;;;30.69;43.57
46944;BME280;32678;43.852;25.952;2023-08-21T01:01:14;101229.84;;;30.81;44.59
46944;BME280;32678;43.852;25.952;2023-08-21T01:06:13;101233.56;;;30.88;45.07
46944;BME280;32678;43.852;25.952;2023-08-21T01:11:12;101231.16;;;30.44;43.27
46944;BME280;32678;43.852;25.952;2023-08-21T01:16:11;101229.47;;;30.43;39.88
46944;BME280;32678;43.852;25.952;2023-08-21T01:21:10;101229.47;;;29.85;39.90
46944;BME280;32678;43.852;25.952;2023-08-21T01:26:08;101222.16;;;29.10;41.52
46944;BME280;32678;43.852;25.952;2023-08-21T01:31:06;101228.63;;;29.17;41.87
46944;BME280;32678;43.852;25.952;2023-08-21T01:36:04;101229.75;;;28.89;42.66
46944;BME280;32678;43.852;25.952;2023-08-21T01:41:04;101232.09;;;29.09;41.89
46944;BME280;32678;43.852;25.952;2023-08-21T01:46:03;101242.47;;;28.61;44.04
46944;BME280;32678;43.852;25.952;2023-08-21T01:51:00;101235.19;;;28.53;44.75
46944;BME280;32678;43.852;25.952;2023-08-21T01:55:56;101233.63;;;28.06;46.11
46944;BME280;32678;43.852;25.952;2023-08-21T02:00:53;101229.41;;;28.03;46.05
46944;BME280;32678;43.852;25.952;2023-08-21T02:05:50;101232.84;;;27.31;48.43
46944;BME280;32678;43.852;25.952;2023-08-21T02:10:50;101228.53;;;27.11;48.70
46944;BME280;32678;43.852;25.952;2023-08-21T02:15:47;101230.25;;;27.39;46.35
46944;BME280;32678;43.852;25.952;2023-08-21T02:20:43;101240.91;;;27.78;43.47
46944;BME280;32678;43.852;25.952;2023-08-21T02:25:41;101245.53;;;27.58;42.87
46944;BME280;32678;43.852;25.952;2023-08-21T02:30:39;101241.59;;;27.80;42.68
46944;BME280;32678;43.852;25.952;2023-08-21T02:35:36;101235.06;;;27.82;43.49
46944;BME280;32678;43.852;25.952;2023-08-21T02:40:32;101232.31;;;27.92;42.93
46944;BME280;32678;43.852;25.952;2023-08-21T02:45:30;101241.53;;;27.62;44.30
46944;BME280;32678;43.852;25.952;2023-08-21T02:50:27;101241.13;;;27.57;44.60
46944;BME280;32678;43.852;25.952;2023-08-21T02:55:23;101245.94;;;27.63;44.16
46944;BME280;32678;43.852;25.952;2023-08-21T03:00:20;101238.75;;;27.81;44.11
46944;BME280;32678;43.852;25.952;2023-08-21T03:05:17;101234.34;;;28.08;42.70
46944;BME280;32678;43.852;25.952;2023-08-21T03:10:14;101242.19;;;28.01;41.96
46944;BME280;32678;43.852;25.952;2023-08-21T03:15:10;101239.16;;;28.14;41.67
46944;BME280;32678;43.852;25.952;2023-08-21T03:20:07;101250.72;;;28.41;41.68
46944;BME280;32678;43.852;25.952;2023-08-21T03:25:06;101246.81;;;28.36;41.06
46944;BME280;32678;43.852;25.952;2023-08-21T03:30:03;101261.00;;;27.83;41.58
46944;BME280;32678;43.852;25.952;2023-08-21T03:35:00;101264.88;;;27.71;41.57
46944;BME280;32678;43.852;25.952;2023-08-21T03:39:57;101267.22;;;27.47;41.67
46944;BME280;32678;43.852;25.952;2023-08-21T03:44:54;101272.16;;;27.05;42.25
46944;BME280;32678;43.852;25.952;2023-08-21T03:49:51;101262.75;;;27.28;42.01
46944;BME280;32678;43.852;25.952;2023-08-21T03:54:50;101271.28;;;27.97;44.28
46944;BME280;32678;43.852;25.952;2023-08-21T03:59:47;101276.06;;;28.31;44.55
46944;BME280;32678;43.852;25.952;2023-08-21T04:04:44;101277.16;;;28.11;46.08
46944;BME280;32678;43.852;25.952;2023-08-21T04:09:41;101278.97;;;27.92;47.48
46944;BME280;32678;43.852;25.952;2023-08-21T04:14:38;101288.22;;;27.43;48.93
46944;BME280;32678;43.852;25.952;2023-08-21T04:19:35;101294.91;;;27.30;48.78
46944;BME280;32678;43.852;25.952;2023-08-21T04:24:32;101287.09;;;27.46;46.84
46944;BME280;32678;43.852;25.952;2023-08-21T04:29:28;101289.13;;;27.25;44.86
46944;BME280;32678;43.852;25.952;2023-08-21T04:34:25;101286.34;;;26.97;45.18
46944;BME280;32678;43.852;25.952;2023-08-21T04:39:22;101290.63;;;27.37;45.17
46944;BME280;32678;43.852;25.952;2023-08-21T04:44:19;101293.66;;;27.24;45.07
46944;BME280;32678;43.852;25.952;2023-08-21T04:49:16;101296.94;;;26.99;44.94
46944;BME280;32678;43.852;25.952;2023-08-21T04:54:13;101305.19;;;27.07;45.09
46944;BME280;32678;43.852;25.952;2023-08-21T04:59:10;101311.66;;;27.24;45.03
46944;BME280;32678;43.852;25.952;2023-08-21T05:04:07;101310.97;;;27.22;44.96
46944;BME280;32678;43.852;25.952;2023-08-21T05:09:04;101312.97;;;26.91;45.98
46944;BME280;32678;43.852;25.952;2023-08-21T05:14:01;101311.97;;;27.11;46.15
46944;BME280;32678;43.852;25.952;2023-08-21T05:18:58;101306.84;;;26.98;46.39
46944;BME280;32678;43.852;25.952;2023-08-21T05:23:56;101313.53;;;26.94;47.74
46944;BME280;32678;43.852;25.952;2023-08-21T05:28:54;101317.03;;;27.24;46.64
46944;BME280;32678;43.852;25.952;2023-08-21T05:33:50;101324.25;;;27.23;46.80
46944;BME280;32678;43.852;25.952;2023-08-21T05:38:47;101312.91;;;27.29;50.37
46944;BME280;32678;43.852;25.952;2023-08-21T05:43:44;101319.34;;;26.90;51.00
46944;BME280;32678;43.852;25.952;2023-08-21T05:48:43;101320.56;;;26.66;50.75
46944;BME280;32678;43.852;25.952;2023-08-21T05:53:39;101316.03;;;26.57;49.88
46944;BME280;32678;43.852;25.952;2023-08-21T05:58:36;101327.25;;;26.72;48.87
46944;BME280;32678;43.852;25.952;2023-08-21T06:03:40;101325.69;;;26.98;48.22
46944;BME280;32678;43.852;25.952;2023-08-21T06:08:57;101326.97;;;26.94;47.71
46944;BME280;32678;43.852;25.952;2023-08-21T06:13:54;101330.06;;;26.80;47.66
46944;BME280;32678;43.852;25.952;2023-08-21T06:18:51;101334.34;;;27.02;46.92
46944;BME280;32678;43.852;25.952;2023-08-21T06:23:48;101330.38;;;27.06;46.51
46944;BME280;32678;43.852;25.952;2023-08-21T06:28:48;101339.53;;;27.42;45.95
46944;BME280;32678;43.852;25.952;2023-08-21T06:33:45;101343.91;;;27.43;45.39
46944;BME280;32678;43.852;25.952;2023-08-21T06:38:43;101342.22;;;27.42;45.71
46944;BME280;32678;43.852;25.952;2023-08-21T06:43:40;101349.19;;;27.91;44.41
46944;BME280;32678;43.852;25.952;2023-08-21T06:48:43;101357.63;;;27.78;43.89
46944;BME280;32678;43.852;25.952;2023-08-21T06:53:42;101351.41;;;27.68;43.96
46944;BME280;32678;43.852;25.952;2023-08-21T06:58:39;101353.03;;;27.88;43.85
46944;BME280;32678;43.852;25.952;2023-08-21T07:03:36;101353.53;;;28.01;43.26
46944;BME280;32678;43.852;25.952;2023-08-21T07:08:32;101354.78;;;28.17;44.11
46944;BME280;32678;43.852;25.952;2023-08-21T07:13:30;101353.22;;;28.41;44.20
46944;BME280;32678;43.852;25.952;2023-08-21T07:18:27;101347.91;;;28.77;43.40
46944;BME280;32678;43.852;25.952;2023-08-21T07:23:24;101350.59;;;28.95;43.13
46944;BME280;32678;43.852;25.952;2023-08-21T07:28:20;101346.72;;;29.15;43.77
46944;BME280;32678;43.852;25.952;2023-08-21T07:33:18;101345.09;;;29.40;43.32
46944;BME280;32678;43.852;25.952;2023-08-21T07:38:14;101333.38;;;29.83;42.57
46944;BME280;32678;43.852;25.952;2023-08-21T07:43:11;101329.72;;;29.92;42.48
46944;BME280;32678;43.852;25.952;2023-08-21T07:48:08;101335.78;;;30.20;42.46
46944;BME280;32678;43.852;25.952;2023-08-21T07:53:11;101326.53;;;30.38;42.43
46944;BME280;32678;43.852;25.952;2023-08-21T07:58:07;101322.19;;;30.53;40.34
46944;BME280;32678;43.852;25.952;2023-08-21T08:03:04;101332.69;;;30.65;40.49
46944;BME280;32678;43.852;25.952;2023-08-21T08:08:01;101329.34;;;30.79;38.79
46944;BME280;32678;43.852;25.952;2023-08-21T08:12:58;101327.31;;;30.73;36.46
46944;BME280;32678;43.852;25.952;2023-08-21T08:17:55;101322.50;;;30.50;36.49
46944;BME280;32678;43.852;25.952;2023-08-21T08:22:52;101321.06;;;30.30;37.29
46944;BME280;32678;43.852;25.952;2023-08-21T08:27:52;101316.50;;;30.31;37.30
46944;BME280;32678;43.852;25.952;2023-08-21T08:32:49;101309.78;;;30.43;37.38
46944;BME280;32678;43.852;25.952;2023-08-21T08:37:46;101323.38;;;30.51;37.34
46944;BME280;32678;43.852;25.952;2023-08-21T08:42:42;101303.94;;;30.80;36.80
46944;BME280;32678;43.852;25.952;2023-08-21T08:47:39;101310.22;;;30.96;36.98
46944;BME280;32678;43.852;25.952;2023-08-21T08:52:38;101306.00;;;31.10;36.59
46944;BME280;32678;43.852;25.952;2023-08-21T08:57:35;101297.91;;;31.02;36.89
46944;BME280;32678;43.852;25.952;2023-08-21T09:02:33;101297.00;;;31.34;36.30
46944;BME280;32678;43.852;25.952;2023-08-21T09:07:30;101292.19;;;31.68;35.75
46944;BME280;32678;43.852;25.952;2023-08-21T09:12:27;101286.56;;;31.78;35.89
46944;BME280;32678;43.852;25.952;2023-08-21T09:17:27;101277.06;;;31.90;35.25
46944;BME280;32678;43.852;25.952;2023-08-21T09:22:24;101279.78;;;31.82;35.39
46944;BME280;32678;43.852;25.952;2023-08-21T09:27:21;101271.09;;;31.95;35.41
46944;BME280;32678;43.852;25.952;2023-08-21T09:32:18;101267.16;;;31.97;34.90
46944;BME280;32678;43.852;25.952;2023-08-21T09:37:16;101268.19;;;31.96;34.50
46944;BME280;32678;43.852;25.952;2023-08-21T09:42:13;101262.19;;;32.17;34.75
46944;BME280;32678;43.852;25.952;2023-08-21T09:47:10;101253.69;;;32.20;34.03
46944;BME280;32678;43.852;25.952;2023-08-21T09:52:08;101254.09;;;32.40;33.95
46944;BME280;32678;43.852;25.952;2023-08-21T09:57:08;101250.47;;;32.70;33.37
46944;BME280;32678;43.852;25.952;2023-08-21T10:02:07;101247.09;;;32.68;33.13
46944;BME280;32678;43.852;25.952;2023-08-21T10:07:08;101243.59;;;32.82;33.00
46944;BME280;32678;43.852;25.952;2023-08-21T10:12:11;101224.66;;;32.74;33.41
46944;BME280;32678;43.852;25.952;2023-08-21T10:17:10;101222.31;;;32.86;32.48
46944;BME280;32678;43.852;25.952;2023-08-21T10:22:07;101217.09;;;33.14;32.19
46944;BME280;32678;43.852;25.952;2023-08-21T10:27:03;101211.25;;;33.39;31.46
46944;BME280;32678;43.852;25.952;2023-08-21T10:32:03;101211.72;;;33.28;31.70
46944;BME280;32678;43.852;25.952;2023-08-21T10:37:05;101201.78;;;33.21;31.36
46944;BME280;32678;43.852;25.952;2023-08-21T10:42:04;101199.81;;;33.29;31.73
46944;BME280;32678;43.852;25.952;2023-08-21T10:47:13;101194.75;;;33.41;31.45
46944;BME280;32678;43.852;25.952;2023-08-21T10:52:19;101189.50;;;33.54;31.06
46944;BME280;32678;43.852;25.952;2023-08-21T10:57:17;101193.31;;;33.89;30.67
46944;BME280;32678;43.852;25.952;2023-08-21T11:02:16;101183.31;;;33.75;30.69
46944;BME280;32678;43.852;25.952;2023-08-21T11:07:12;101176.59;;;33.92;30.25
46944;BME280;32678;43.852;25.952;2023-08-21T11:12:10;101170.56;;;33.97;29.71
46944;BME280;32678;43.852;25.952;2023-08-21T11:17:07;101165.44;;;34.23;29.91
46944;BME280;32678;43.852;25.952;2023-08-21T11:22:05;101164.41;;;34.24;29.62
46944;BME280;32678;43.852;25.952;2023-08-21T11:27:02;101158.50;;;34.20;29.10
46944;BME280;32678;43.852;25.952;2023-08-21T11:32:00;101150.72;;;34.66;28.68
46944;BME280;32678;43.852;25.952;2023-08-21T11:36:58;101140.53;;;34.68;28.14
46944;BME280;32678;43.852;25.952;2023-08-21T11:41:56;101142.28;;;34.83;27.07
46944;BME280;32678;43.852;25.952;2023-08-21T11:46:56;101134.53;;;34.80;25.95
46944;BME280;32678;43.852;25.952;2023-08-21T11:52:00;101135.09;;;35.03;26.76
46944;BME280;32678;43.852;25.952;2023-08-21T11:57:00;101136.97;;;35.02;27.31
46944;BME280;32678;43.852;25.952;2023-08-21T12:01:56;101132.13;;;34.98;28.28
46944;BME280;32678;43.852;25.952;2023-08-21T12:06:53;101126.19;;;34.88;28.25
46944;BME280;32678;43.852;25.952;2023-08-21T12:11:49;101130.97;;;35.13;28.55
46944;BME280;32678;43.852;25.952;2023-08-21T12:16:46;101132.03;;;34.85;29.25
46944;BME280;32678;43.852;25.952;2023-08-21T12:21:43;101132.00;;;34.57;30.40
46944;BME280;32678;43.852;25.952;2023-08-21T12:26:40;101142.88;;;34.29;32.12
46944;BME280;32678;43.852;25.952;2023-08-21T12:31:47;101132.88;;;34.36;30.91
46944;BME280;32678;43.852;25.952;2023-08-21T12:36:43;101129.19;;;34.44;30.71
46944;BME280;32678;43.852;25.952;2023-08-21T12:41:40;101122.72;;;34.45;31.07
46944;BME280;32678;43.852;25.952;2023-08-21T12:46:37;101122.38;;;34.54;31.99
46944;BME280;32678;43.852;25.952;2023-08-21T12:51:35;101115.59;;;34.44;31.18
46944;BME280;32678;43.852;25.952;2023-08-21T12:56:32;101116.81;;;34.41;30.67
46944;BME280;32678;43.852;25.952;2023-08-21T13:01:28;101109.94;;;34.45;31.21
46944;BME280;32678;43.852;25.952;2023-08-21T13:06:25;101111.81;;;34.45;29.94
46944;BME280;32678;43.852;25.952;2023-08-21T13:11:23;101101.38;;;34.48;30.19
46944;BME280;32678;43.852;25.952;2023-08-21T13:16:19;101108.09;;;34.52;30.29
46944;BME280;32678;43.852;25.952;2023-08-21T13:21:16;101102.47;;;34.54;29.39
46944;BME280;32678;43.852;25.952;2023-08-21T13:26:13;101099.31;;;34.50;29.72
46944;BME280;32678;43.852;25.952;2023-08-21T13:31:10;101106.88;;;34.55;29.07
46944;BME280;32678;43.852;25.952;2023-08-21T13:36:10;101105.06;;;34.41;28.33
46944;BME280;32678;43.852;25.952;2023-08-21T13:41:11;101097.97;;;34.18;29.02
46944;BME280;32678;43.852;25.952;2023-08-21T13:46:07;101099.78;;;34.32;28.99
46944;BME280;32678;43.852;25.952;2023-08-21T13:51:05;101108.44;;;34.43;29.41
46944;BME280;32678;43.852;25.952;2023-08-21T13:56:01;101091.31;;;34.49;29.30
46944;BME280;32678;43.852;25.952;2023-08-21T14:00:58;101081.38;;;34.62;30.08
46944;BME280;32678;43.852;25.952;2023-08-21T14:05:54;101087.22;;;34.59;29.74
46944;BME280;32678;43.852;25.952;2023-08-21T14:10:55;101081.63;;;34.40;29.84
46944;BME280;32678;43.852;25.952;2023-08-21T14:15:51;101081.97;;;34.30;30.07
46944;BME280;32678;43.852;25.952;2023-08-21T14:20:48;101089.13;;;34.38;31.71
46944;BME280;32678;43.852;25.952;2023-08-21T14:25:44;101077.66;;;34.42;31.50
46944;BME280;32678;43.852;25.952;2023-08-21T14:30:41;101080.34;;;34.35;30.98
46944;BME280;32678;43.852;25.952;2023-08-21T14:35:38;101065.03;;;34.34;30.99
46944;BME280;32678;43.852;25.952;2023-08-21T14:40:35;101061.97;;;34.44;30.99
46944;BME280;32678;43.852;25.952;2023-08-21T14:45:31;101071.44;;;34.48;30.88
46944;BME280;32678;43.852;25.952;2023-08-21T14:50:29;101059.28;;;34.51;29.71
46944;BME280;32678;43.852;25.952;2023-08-21T14:55:25;101052.53;;;34.40;30.16
46944;BME280;32678;43.852;25.952;2023-08-21T15:00:22;101043.09;;;34.43;29.66
46944;BME280;32678;43.852;25.952;2023-08-21T15:05:19;101045.91;;;34.56;30.08
46944;BME280;32678;43.852;25.952;2023-08-21T15:10:18;101050.66;;;34.68;30.69
46944;BME280;32678;43.852;25.952;2023-08-21T15:15:14;101056.59;;;34.57;30.80
46944;BME280;32678;43.852;25.952;2023-08-21T15:20:16;101051.81;;;34.31;30.89
46944;BME280;32678;43.852;25.952;2023-08-21T15:25:12;101052.38;;;34.48;30.97
46944;BME280;32678;43.852;25.952;2023-08-21T15:30:10;101061.03;;;34.58;31.69
46944;BME280;32678;43.852;25.952;2023-08-21T15:35:07;101065.63;;;34.58;32.99
46944;BME280;32678;43.852;25.952;2023-08-21T15:40:04;101067.69;;;34.56;34.57
46944;BME280;32678;43.852;25.952;2023-08-21T15:45:01;101073.75;;;35.20;30.80
46944;BME280;32678;43.852;25.952;2023-08-21T15:49:58;101073.63;;;35.35;30.20
46944;BME280;32678;43.852;25.952;2023-08-21T15:54:55;101062.31;;;34.97;31.27
46944;BME280;32678;43.852;25.952;2023-08-21T15:59:51;101064.75;;;34.85;33.50
46944;BME280;32678;43.852;25.952;2023-08-21T16:04:48;101065.97;;;34.76;34.94
46944;BME280;32678;43.852;25.952;2023-08-21T16:09:45;101064.25;;;34.68;32.39
46944;BME280;32678;43.852;25.952;2023-08-21T16:14:42;101067.34;;;34.65;33.06
46944;BME280;32678;43.852;25.952;2023-08-21T16:19:38;101070.22;;;34.57;33.02
46944;BME280;32678;43.852;25.952;2023-08-21T16:24:35;101067.25;;;34.52;32.30
46944;BME280;32678;43.852;25.952;2023-08-21T16:29:32;101063.66;;;34.45;33.22
46944;BME280;32678;43.852;25.952;2023-08-21T16:34:28;101074.59;;;34.52;32.90
46944;BME280;32678;43.852;25.952;2023-08-21T16:39:25;101077.13;;;34.53;32.98
46944;BME280;32678;43.852;25.952;2023-08-21T16:44:22;101078.31;;;34.44;35.53
46944;BME280;32678;43.852;25.952;2023-08-21T16:49:19;101075.72;;;34.36;37.99
46944;BME280;32678;43.852;25.952;2023-08-21T16:54:15;101071.69;;;34.25;36.80
46944;BME280;32678;43.852;25.952;2023-08-21T16:59:12;101078.19;;;34.31;36.04
46944;BME280;32678;43.852;25.952;2023-08-21T17:04:09;101081.72;;;34.25;35.48
46944;BME280;32678;43.852;25.952;2023-08-21T17:09:07;101083.91;;;34.15;35.29
46944;BME280;32678;43.852;25.952;2023-08-21T17:14:03;101086.56;;;34.08;35.49
46944;BME280;32678;43.852;25.952;2023-08-21T17:19:00;101099.84;;;34.18;34.98
46944;BME280;32678;43.852;25.952;2023-08-21T17:23:57;101109.69;;;33.98;34.40
46944;BME280;32678;43.852;25.952;2023-08-21T17:28:54;101096.75;;;34.00;33.91
46944;BME280;32678;43.852;25.952;2023-08-21T17:33:52;101097.09;;;33.97;33.50
46944;BME280;32678;43.852;25.952;2023-08-21T17:38:49;101098.44;;;34.01;34.23
46944;BME280;32678;43.852;25.952;2023-08-21T17:43:46;101106.03;;;34.12;33.89
46944;BME280;32678;43.852;25.952;2023-08-21T17:48:43;101109.56;;;34.06;36.86
46944;BME280;32678;43.852;25.952;2023-08-21T17:53:40;101110.19;;;34.08;40.67
46944;BME280;32678;43.852;25.952;2023-08-21T17:58:36;101105.34;;;34.03;40.90
46944;BME280;32678;43.852;25.952;2023-08-21T18:03:33;101114.72;;;33.79;37.95
46944;BME280;32678;43.852;25.952;2023-08-21T18:08:31;101118.88;;;33.75;40.57
46944;BME280;32678;43.852;25.952;2023-08-21T18:13:27;101110.56;;;33.62;40.51
46944;BME280;32678;43.852;25.952;2023-08-21T18:18:24;101125.47;;;33.51;42.40
46944;BME280;32678;43.852;25.952;2023-08-21T18:23:21;101127.56;;;33.35;44.14
46944;BME280;32678;43.852;25.952;2023-08-21T18:28:21;101141.13;;;33.49;46.99
46944;BME280;32678;43.852;25.952;2023-08-21T18:33:19;101142.09;;;33.42;45.71
46944;BME280;32678;43.852;25.952;2023-08-21T18:38:16;101155.28;;;33.45;41.71
46944;BME280;32678;43.852;25.952;2023-08-21T18:43:13;101161.94;;;33.57;39.37
46944;BME280;32678;43.852;25.952;2023-08-21T18:48:10;101158.66;;;33.62;40.83
46944;BME280;32678;43.852;25.952;2023-08-21T18:53:06;101165.03;;;33.54;45.44
46944;BME280;32678;43.852;25.952;2023-08-21T18:58:04;101161.19;;;33.34;47.66
46944;BME280;32678;43.852;25.952;2023-08-21T19:03:01;101157.94;;;33.24;47.97
46944;BME280;32678;43.852;25.952;2023-08-21T19:07:58;101158.03;;;33.16;47.76
46944;BME280;32678;43.852;25.952;2023-08-21T19:12:55;101172.31;;;33.09;47.19
46944;BME280;32678;43.852;25.952;2023-08-21T19:17:52;101171.63;;;33.16;47.43
46944;BME280;32678;43.852;25.952;2023-08-21T19:22:48;101170.91;;;33.14;45.84
46944;BME280;32678;43.852;25.952;2023-08-21T19:27:50;101171.13;;;33.12;42.41
46944;BME280;32678;43.852;25.952;2023-08-21T19:32:46;101177.41;;;33.13;40.01
46944;BME280;32678;43.852;25.952;2023-08-21T19:37:43;101172.47;;;33.16;39.41
46944;BME280;32678;43.852;25.952;2023-08-21T19:42:40;101182.78;;;33.21;37.54
46944;BME280;32678;43.852;25.952;2023-08-21T19:47:37;101181.31;;;33.10;38.12
46944;BME280;32678;43.852;25.952;2023-08-21T19:52:34;101182.78;;;33.21;39.95
46944;BME280;32678;43.852;25.952;2023-08-21T19:57:31;101188.44;;;33.11;43.86
46944;BME280;32678;43.852;25.952;2023-08-21T20:02:27;101183.69;;;32.98;43.77
46944;BME280;32678;43.852;25.952;2023-08-21T20:07:25;101190.75;;;32.85;43.15
46944;BME280;32678;43.852;25.952;2023-08-21T20:12:21;101191.94;;;32.67;42.76
46944;BME280;32678;43.852;25.952;2023-08-21T20:17:18;101197.84;;;32.71;42.19
46944;BME280;32678;43.852;25.952;2023-08-21T20:22:16;101192.91;;;32.89;42.72
46944;BME280;32678;43.852;25.952;2023-08-21T20:27:13;101189.75;;;32.63;40.17
46944;BME280;32678;43.852;25.952;2023-08-21T20:32:10;101190.00;;;32.31;39.74
46944;BME280;32678;43.852;25.952;2023-08-21T20:37:06;101184.00;;;32.20;39.63
46944;BME280;32678;43.852;25.952;2023-08-21T20:42:03;101190.31;;;32.36;42.34
46944;BME280;32678;43.852;25.952;2023-08-21T20:47:00;101190.31;;;32.36;44.56
46944;BME280;32678;43.852;25.952;2023-08-21T20:51:57;101177.63;;;32.51;45.96
46944;BME280;32678;43.852;25.952;2023-08-21T20:56:54;101179.75;;;32.41;45.25
46944;BME280;32678;43.852;25.952;2023-08-21T21:01:50;101172.31;;;32.20;45.11
46944;BME280;32678;43.852;25.952;2023-08-21T21:06:49;101182.78;;;32.23;43.78
46944;BME280;32678;43.852;25.952;2023-08-21T21:11:47;101186.41;;;32.15;44.27
46944;BME280;32678;43.852;25.952;2023-08-21T21:16:43;101194.19;;;32.18;45.66
46944;BME280;32678;43.852;25.952;2023-08-21T21:21:40;101205.41;;;32.15;46.85
46944;BME280;32678;43.852;25.952;2023-08-21T21:26:37;101226.81;;;32.10;47.60
46944;BME280;32678;43.852;25.952;2023-08-21T21:31:34;101222.19;;;31.72;46.77
46944;BME280;32678;43.852;25.952;2023-08-21T21:36:31;101232.41;;;31.70;45.88
46944;BME280;32678;43.852;25.952;2023-08-21T21:41:27;101227.81;;;31.70;44.64
46944;BME280;32678;43.852;25.952;2023-08-21T21:46:25;101224.53;;;31.83;42.98
46944;BME280;32678;43.852;25.952;2023-08-21T21:51:22;101223.66;;;31.91;42.77
46944;BME280;32678;43.852;25.952;2023-08-21T21:56:19;101215.94;;;32.10;41.01
46944;BME280;32678;43.852;25.952;2023-08-21T22:01:15;101224.78;;;31.96;42.80
46944;BME280;32678;43.852;25.952;2023-08-21T22:06:13;101224.69;;;31.81;43.30
46944;BME280;32678;43.852;25.952;2023-08-21T22:11:09;101224.34;;;31.85;44.40
46944;BME280;32678;43.852;25.952;2023-08-21T22:16:06;101229.53;;;31.71;41.92
46944;BME280;32678;43.852;25.952;2023-08-21T22:21:03;101231.97;;;31.42;43.45
46944;BME280;32678;43.852;25.952;2023-08-21T22:26:02;101226.56;;;31.34;42.46
46944;BME280;32678;43.852;25.952;2023-08-21T22:30:59;101215.28;;;30.90;43.08
46944;BME280;32678;43.852;25.952;2023-08-21T22:35:55;101222.22;;;30.76;43.32
46944;BME280;32678;43.852;25.952;2023-08-21T22:40:52;101227.50;;;31.02;46.24
46944;BME280;32678;43.852;25.952;2023-08-21T22:45:49;101227.13;;;31.05;47.12
46944;BME280;32678;43.852;25.952;2023-08-21T22:50:46;101231.88;;;31.11;46.50
46944;BME280;32678;43.852;25.952;2023-08-21T22:55:51;101234.75;;;31.18;47.42
46944;BME280;32678;43.852;25.952;2023-08-21T23:00:47;101239.47;;;30.99;48.91
46944;BME280;32678;43.852;25.952;2023-08-21T23:05:51;101241.50;;;30.81;49.91
46944;BME280;32678;43.852;25.952;2023-08-21T23:10:48;101245.88;;;30.98;49.60
46944;BME280;32678;43.852;25.952;2023-08-21T23:15:44;101247.28;;;31.11;48.91
46944;BME280;32678;43.852;25.952;2023-08-21T23:20:41;101240.78;;;31.28;47.44
46944;BME280;32678;43.852;25.952;2023-08-21T23:25:39;101249.25;;;31.33;45.69
46944;BME280;32678;43.852;25.952;2023-08-21T23:30:36;101253.00;;;31.24;45.29
46944;BME280;32678;43.852;25.952;2023-08-21T23:35:36;101249.66;;;31.06;44.62
46944;BME280;32678;43.852;25.952;2023-08-21T23:40:33;101253.63;;;30.37;46.30
46944;BME280;32678;43.852;25.952;2023-08-21T23:45:31;101250.03;;;30.12;47.07
46944;BME280;32678;43.852;25.952;2023-08-21T23:50:28;101239.41;;;30.19;46.17
46944;BME280;32678;43.852;25.952;2023-08-21T23:55:25;101240.59;;;30.24;45.42
